sensor_id;sensor_type;location;lat;lon;timestamp;P1;durP1;ratioP1;P2;durP2;ratioP2
5491;SDS011;2768;53.540;10.224;2023-02-28T00:03:49;4.33;;;3.93;;
5491;SDS011;2768;53.540;10.224;2023-02-28T00:09:42;5.73;;;4.27;;
5491;SDS011;2768;53.540;10.224;2023-02-28T00:15:37;4.67;;;3.97;;
5491;SDS011;2768;53.540;10.224;2023-02-28T00:21:30;5.53;;;3.93;;
5491;SDS011;2768;53.540;10.224;2023-02-28T00:27:24;4.87;;;4.07;;
5491;SDS011;2768;53.540;10.224;2023-02-28T00:33:19;5.30;;;4.07;;
5491;SDS011;2768;53.540;10.224;2023-02-28T00:39:12;5.17;;;4.27;;
5491;SDS011;2768;53.540;10.224;2023-02-28T00:45:06;5.20;;;4.00;;
5491;SDS011;2768;53.540;10.224;2023-02-28T00:51:03;5.13;;;3.70;;
5491;SDS011;2768;53.540;10.224;2023-02-28T00:56:57;3.70;;;3.40;;
5491;SDS011;2768;53.540;10.224;2023-02-28T01:02:51;3.87;;;3.13;;
5491;SDS011;2768;53.540;10.224;2023-02-28T01:08:47;4.60;;;3.10;;
5491;SDS011;2768;53.540;10.224;2023-02-28T01:14:40;3.17;;;2.67;;
5491;SDS011;2768;53.540;10.224;2023-02-28T01:20:35;3.87;;;3.10;;
5491;SDS011;2768;53.540;10.224;2023-02-28T01:26:30;3.00;;;2.67;;
5491;SDS011;2768;53.540;10.224;2023-02-28T01:32:23;4.50;;;3.50;;
5491;SDS011;2768;53.540;10.224;2023-02-28T01:38:17;4.83;;;3.40;;
5491;SDS011;2768;53.540;10.224;2023-02-28T01:50:45;2.70;;;2.50;;
5491;SDS011;2768;53.540;10.224;2023-02-28T01:56:42;3.63;;;2.67;;
5491;SDS011;2768;53.540;10.224;2023-02-28T02:02:38;3.63;;;2.53;;
5491;SDS011;2768;53.540;10.224;2023-02-28T02:08:34;3.40;;;3.10;;
5491;SDS011;2768;53.540;10.224;2023-02-28T02:14:37;4.83;;;2.83;;
5491;SDS011;2768;53.540;10.224;2023-02-28T02:27:22;5.07;;;3.03;;
5491;SDS011;2768;53.540;10.224;2023-02-28T02:39:47;7.10;;;2.63;;
5491;SDS011;2768;53.540;10.224;2023-02-28T02:45:46;3.03;;;2.57;;
5491;SDS011;2768;53.540;10.224;2023-02-28T02:51:46;3.10;;;2.40;;
5491;SDS011;2768;53.540;10.224;2023-02-28T02:57:43;4.27;;;2.20;;
5491;SDS011;2768;53.540;10.224;2023-02-28T03:03:40;3.80;;;2.90;;
5491;SDS011;2768;53.540;10.224;2023-02-28T03:09:34;3.50;;;2.50;;
5491;SDS011;2768;53.540;10.224;2023-02-28T03:15:32;3.50;;;2.83;;
5491;SDS011;2768;53.540;10.224;2023-02-28T03:21:36;2.90;;;2.70;;
5491;SDS011;2768;53.540;10.224;2023-02-28T03:27:36;2.90;;;2.70;;
5491;SDS011;2768;53.540;10.224;2023-02-28T03:33:37;4.30;;;2.73;;
5491;SDS011;2768;53.540;10.224;2023-02-28T03:39:35;3.10;;;2.80;;
5491;SDS011;2768;53.540;10.224;2023-02-28T03:45:33;2.70;;;2.23;;
5491;SDS011;2768;53.540;10.224;2023-02-28T03:51:31;3.07;;;2.73;;
5491;SDS011;2768;53.540;10.224;2023-02-28T03:57:27;5.33;;;2.50;;
5491;SDS011;2768;53.540;10.224;2023-02-28T04:03:26;3.13;;;2.10;;
5491;SDS011;2768;53.540;10.224;2023-02-28T04:09:20;3.33;;;2.03;;
5491;SDS011;2768;53.540;10.224;2023-02-28T04:15:14;5.97;;;2.50;;
5491;SDS011;2768;53.540;10.224;2023-02-28T04:21:07;2.13;;;1.83;;
5491;SDS011;2768;53.540;10.224;2023-02-28T04:27:03;2.40;;;2.20;;
5491;SDS011;2768;53.540;10.224;2023-02-28T04:32:56;2.13;;;1.70;;
5491;SDS011;2768;53.540;10.224;2023-02-28T04:38:50;3.10;;;2.40;;
5491;SDS011;2768;53.540;10.224;2023-02-28T04:44:45;1.97;;;1.87;;
5491;SDS011;2768;53.540;10.224;2023-02-28T04:50:39;2.60;;;2.40;;
5491;SDS011;2768;53.540;10.224;2023-02-28T04:56:32;2.40;;;2.07;;
5491;SDS011;2768;53.540;10.224;2023-02-28T05:02:27;3.50;;;2.10;;
5491;SDS011;2768;53.540;10.224;2023-02-28T05:08:21;2.20;;;1.97;;
5491;SDS011;2768;53.540;10.224;2023-02-28T05:14:14;3.10;;;2.20;;
5491;SDS011;2768;53.540;10.224;2023-02-28T05:20:10;7.30;;;1.97;;
5491;SDS011;2768;53.540;10.224;2023-02-28T05:26:06;2.53;;;2.13;;
5491;SDS011;2768;53.540;10.224;2023-02-28T05:32:00;2.93;;;2.60;;
5491;SDS011;2768;53.540;10.224;2023-02-28T05:37:54;5.53;;;2.80;;
5491;SDS011;2768;53.540;10.224;2023-02-28T05:43:47;3.77;;;2.17;;
5491;SDS011;2768;53.540;10.224;2023-02-28T05:49:41;2.73;;;2.23;;
5491;SDS011;2768;53.540;10.224;2023-02-28T05:55:37;1.60;;;1.50;;
5491;SDS011;2768;53.540;10.224;2023-02-28T06:01:33;3.40;;;2.60;;
5491;SDS011;2768;53.540;10.224;2023-02-28T06:07:27;5.20;;;2.90;;
5491;SDS011;2768;53.540;10.224;2023-02-28T06:13:22;2.70;;;2.23;;
5491;SDS011;2768;53.540;10.224;2023-02-28T06:19:16;2.43;;;2.23;;
5491;SDS011;2768;53.540;10.224;2023-02-28T06:25:09;4.33;;;3.10;;
5491;SDS011;2768;53.540;10.224;2023-02-28T06:31:07;3.40;;;2.63;;
5491;SDS011;2768;53.540;10.224;2023-02-28T06:37:01;3.37;;;2.63;;
5491;SDS011;2768;53.540;10.224;2023-02-28T06:42:55;2.50;;;2.30;;
5491;SDS011;2768;53.540;10.224;2023-02-28T06:48:49;2.20;;;2.00;;
5491;SDS011;2768;53.540;10.224;2023-02-28T06:54:42;3.30;;;2.80;;
5491;SDS011;2768;53.540;10.224;2023-02-28T07:00:36;4.83;;;3.80;;
5491;SDS011;2768;53.540;10.224;2023-02-28T07:06:30;2.80;;;2.60;;
5491;SDS011;2768;53.540;10.224;2023-02-28T07:12:24;3.13;;;2.83;;
5491;SDS011;2768;53.540;10.224;2023-02-28T07:18:17;3.90;;;3.00;;
5491;SDS011;2768;53.540;10.224;2023-02-28T07:24:12;6.17;;;4.67;;
5491;SDS011;2768;53.540;10.224;2023-02-28T07:30:07;12.20;;;5.87;;
5491;SDS011;2768;53.540;10.224;2023-02-28T07:36:02;7.97;;;5.37;;
5491;SDS011;2768;53.540;10.224;2023-02-28T07:41:57;11.93;;;5.43;;
5491;SDS011;2768;53.540;10.224;2023-02-28T07:47:51;9.17;;;5.20;;
5491;SDS011;2768;53.540;10.224;2023-02-28T07:53:44;8.37;;;5.87;;
5491;SDS011;2768;53.540;10.224;2023-02-28T07:59:39;7.30;;;5.23;;
5491;SDS011;2768;53.540;10.224;2023-02-28T08:05:32;5.93;;;4.70;;
5491;SDS011;2768;53.540;10.224;2023-02-28T08:11:25;8.23;;;5.50;;
5491;SDS011;2768;53.540;10.224;2023-02-28T08:17:20;7.37;;;5.33;;
5491;SDS011;2768;53.540;10.224;2023-02-28T08:23:13;9.43;;;5.63;;
5491;SDS011;2768;53.540;10.224;2023-02-28T08:29:07;8.83;;;5.77;;
5491;SDS011;2768;53.540;10.224;2023-02-28T08:35:01;8.03;;;5.10;;
5491;SDS011;2768;53.540;10.224;2023-02-28T08:40:57;6.00;;;3.37;;
5491;SDS011;2768;53.540;10.224;2023-02-28T08:46:51;4.03;;;2.90;;
5491;SDS011;2768;53.540;10.224;2023-02-28T08:52:46;4.40;;;3.30;;
5491;SDS011;2768;53.540;10.224;2023-02-28T08:58:39;3.80;;;3.37;;
5491;SDS011;2768;53.540;10.224;2023-02-28T09:10:28;3.13;;;2.87;;
5491;SDS011;2768;53.540;10.224;2023-02-28T09:16:21;2.83;;;2.63;;
5491;SDS011;2768;53.540;10.224;2023-02-28T09:22:14;2.80;;;2.60;;
5491;SDS011;2768;53.540;10.224;2023-02-28T09:28:10;3.33;;;2.53;;
5491;SDS011;2768;53.540;10.224;2023-02-28T09:34:03;2.50;;;2.27;;
5491;SDS011;2768;53.540;10.224;2023-02-28T09:39:57;1.93;;;1.63;;
5491;SDS011;2768;53.540;10.224;2023-02-28T09:45:52;1.80;;;1.50;;
5491;SDS011;2768;53.540;10.224;2023-02-28T09:51:50;2.40;;;1.40;;
5491;SDS011;2768;53.540;10.224;2023-02-28T09:57:47;1.53;;;1.10;;
5491;SDS011;2768;53.540;10.224;2023-02-28T10:03:46;0.80;;;0.80;;
5491;SDS011;2768;53.540;10.224;2023-02-28T10:09:50;1.20;;;1.03;;
5491;SDS011;2768;53.540;10.224;2023-02-28T10:15:47;1.10;;;1.00;;
5491;SDS011;2768;53.540;10.224;2023-02-28T10:21:47;1.10;;;1.00;;
5491;SDS011;2768;53.540;10.224;2023-02-28T10:27:47;2.43;;;1.10;;
5491;SDS011;2768;53.540;10.224;2023-02-28T10:33:41;2.07;;;0.90;;
5491;SDS011;2768;53.540;10.224;2023-02-28T10:39:39;1.50;;;0.80;;
5491;SDS011;2768;53.540;10.224;2023-02-28T10:45:34;1.63;;;1.10;;
5491;SDS011;2768;53.540;10.224;2023-02-28T10:51:33;2.40;;;1.43;;
5491;SDS011;2768;53.540;10.224;2023-02-28T10:57:30;1.07;;;1.00;;
5491;SDS011;2768;53.540;10.224;2023-02-28T11:03:25;1.50;;;1.10;;
5491;SDS011;2768;53.540;10.224;2023-02-28T11:09:23;1.93;;;1.30;;
5491;SDS011;2768;53.540;10.224;2023-02-28T11:15:24;1.67;;;1.00;;
5491;SDS011;2768;53.540;10.224;2023-02-28T11:21:21;2.70;;;1.33;;
5491;SDS011;2768;53.540;10.224;2023-02-28T11:27:24;1.77;;;1.10;;
5491;SDS011;2768;53.540;10.224;2023-02-28T11:33:25;1.07;;;0.97;;
5491;SDS011;2768;53.540;10.224;2023-02-28T11:39:20;1.47;;;1.10;;
5491;SDS011;2768;53.540;10.224;2023-02-28T11:45:16;3.10;;;1.30;;
5491;SDS011;2768;53.540;10.224;2023-02-28T11:51:18;0.93;;;0.90;;
5491;SDS011;2768;53.540;10.224;2023-02-28T11:57:21;1.53;;;1.33;;
5491;SDS011;2768;53.540;10.224;2023-02-28T12:03:26;2.10;;;1.30;;
5491;SDS011;2768;53.540;10.224;2023-02-28T12:09:32;1.40;;;1.07;;
5491;SDS011;2768;53.540;10.224;2023-02-28T12:22:12;1.70;;;1.03;;
5491;SDS011;2768;53.540;10.224;2023-02-28T12:28:17;1.23;;;1.13;;
5491;SDS011;2768;53.540;10.224;2023-02-28T12:34:16;1.17;;;1.07;;
5491;SDS011;2768;53.540;10.224;2023-02-28T12:40:14;2.43;;;1.23;;
5491;SDS011;2768;53.540;10.224;2023-02-28T12:46:14;1.87;;;1.30;;
5491;SDS011;2768;53.540;10.224;2023-02-28T12:52:10;1.43;;;1.10;;
5491;SDS011;2768;53.540;10.224;2023-02-28T12:58:11;1.67;;;1.20;;
5491;SDS011;2768;53.540;10.224;2023-02-28T13:04:26;1.43;;;1.33;;
5491;SDS011;2768;53.540;10.224;2023-02-28T13:10:38;1.90;;;1.17;;
5491;SDS011;2768;53.540;10.224;2023-02-28T13:16:54;1.50;;;1.27;;
5491;SDS011;2768;53.540;10.224;2023-02-28T13:22:52;1.40;;;1.27;;
5491;SDS011;2768;53.540;10.224;2023-02-28T13:41:43;4.80;;;1.60;;
5491;SDS011;2768;53.540;10.224;2023-02-28T13:47:38;2.00;;;1.37;;
5491;SDS011;2768;53.540;10.224;2023-02-28T13:53:53;4.07;;;1.37;;
5491;SDS011;2768;53.540;10.224;2023-02-28T13:59:59;1.93;;;1.70;;
5491;SDS011;2768;53.540;10.224;2023-02-28T14:06:09;3.40;;;3.10;;
5491;SDS011;2768;53.540;10.224;2023-02-28T14:18:49;1.97;;;1.87;;
5491;SDS011;2768;53.540;10.224;2023-02-28T14:31:04;3.20;;;2.10;;
5491;SDS011;2768;53.540;10.224;2023-02-28T14:37:04;4.33;;;2.37;;
5491;SDS011;2768;53.540;10.224;2023-02-28T14:43:00;2.10;;;1.60;;
5491;SDS011;2768;53.540;10.224;2023-02-28T14:48:55;1.93;;;1.27;;
5491;SDS011;2768;53.540;10.224;2023-02-28T14:54:52;4.10;;;1.67;;
5491;SDS011;2768;53.540;10.224;2023-02-28T15:00:49;2.13;;;1.23;;
5491;SDS011;2768;53.540;10.224;2023-02-28T15:06:44;1.80;;;1.60;;
5491;SDS011;2768;53.540;10.224;2023-02-28T15:12:39;2.13;;;1.90;;
5491;SDS011;2768;53.540;10.224;2023-02-28T15:18:36;5.97;;;3.70;;
5491;SDS011;2768;53.540;10.224;2023-02-28T15:24:36;2.80;;;2.37;;
5491;SDS011;2768;53.540;10.224;2023-02-28T15:30:32;1.73;;;1.60;;
5491;SDS011;2768;53.540;10.224;2023-02-28T15:36:28;2.43;;;1.77;;
5491;SDS011;2768;53.540;10.224;2023-02-28T15:42:27;3.00;;;1.90;;
5491;SDS011;2768;53.540;10.224;2023-02-28T15:48:24;1.70;;;1.50;;
5491;SDS011;2768;53.540;10.224;2023-02-28T15:54:22;3.30;;;1.80;;
5491;SDS011;2768;53.540;10.224;2023-02-28T16:00:19;2.83;;;1.43;;
5491;SDS011;2768;53.540;10.224;2023-02-28T16:06:26;1.40;;;1.30;;
5491;SDS011;2768;53.540;10.224;2023-02-28T16:12:26;1.47;;;1.37;;
5491;SDS011;2768;53.540;10.224;2023-02-28T16:18:21;1.30;;;1.17;;
5491;SDS011;2768;53.540;10.224;2023-02-28T16:24:16;1.63;;;1.47;;
5491;SDS011;2768;53.540;10.224;2023-02-28T16:30:14;6.27;;;2.50;;
5491;SDS011;2768;53.540;10.224;2023-02-28T16:36:16;2.00;;;1.80;;
5491;SDS011;2768;53.540;10.224;2023-02-28T16:42:14;3.50;;;1.60;;
5491;SDS011;2768;53.540;10.224;2023-02-28T16:48:10;3.07;;;2.27;;
5491;SDS011;2768;53.540;10.224;2023-02-28T16:54:06;3.53;;;2.30;;
5491;SDS011;2768;53.540;10.224;2023-02-28T17:00:01;2.60;;;2.00;;
5491;SDS011;2768;53.540;10.224;2023-02-28T17:05:55;6.47;;;2.60;;
5491;SDS011;2768;53.540;10.224;2023-02-28T17:11:49;6.00;;;3.60;;
5491;SDS011;2768;53.540;10.224;2023-02-28T17:17:43;7.30;;;6.07;;
5491;SDS011;2768;53.540;10.224;2023-02-28T17:23:37;3.90;;;2.70;;
5491;SDS011;2768;53.540;10.224;2023-02-28T17:29:31;3.37;;;3.07;;
5491;SDS011;2768;53.540;10.224;2023-02-28T17:35:25;6.80;;;4.17;;
5491;SDS011;2768;53.540;10.224;2023-02-28T17:41:18;4.07;;;3.40;;
5491;SDS011;2768;53.540;10.224;2023-02-28T17:47:11;4.43;;;3.57;;
5491;SDS011;2768;53.540;10.224;2023-02-28T17:53:06;4.83;;;3.30;;
5491;SDS011;2768;53.540;10.224;2023-02-28T17:59:00;5.30;;;4.57;;
5491;SDS011;2768;53.540;10.224;2023-02-28T18:04:53;7.03;;;5.67;;
5491;SDS011;2768;53.540;10.224;2023-02-28T18:10:48;9.47;;;7.00;;
5491;SDS011;2768;53.540;10.224;2023-02-28T18:16:41;12.40;;;8.90;;
5491;SDS011;2768;53.540;10.224;2023-02-28T18:22:34;22.73;;;11.30;;
5491;SDS011;2768;53.540;10.224;2023-02-28T18:28:29;21.90;;;14.03;;
5491;SDS011;2768;53.540;10.224;2023-02-28T18:34:25;16.13;;;8.73;;
5491;SDS011;2768;53.540;10.224;2023-02-28T18:40:19;13.23;;;8.20;;
5491;SDS011;2768;53.540;10.224;2023-02-28T18:46:14;17.60;;;10.07;;
5491;SDS011;2768;53.540;10.224;2023-02-28T18:52:08;10.23;;;7.20;;
5491;SDS011;2768;53.540;10.224;2023-02-28T18:58:02;11.13;;;7.40;;
5491;SDS011;2768;53.540;10.224;2023-02-28T19:03:58;10.83;;;6.93;;
5491;SDS011;2768;53.540;10.224;2023-02-28T19:09:52;11.17;;;6.90;;
5491;SDS011;2768;53.540;10.224;2023-02-28T19:15:46;20.30;;;8.50;;
5491;SDS011;2768;53.540;10.224;2023-02-28T19:21:40;12.87;;;9.43;;
5491;SDS011;2768;53.540;10.224;2023-02-28T19:27:34;14.70;;;9.27;;
5491;SDS011;2768;53.540;10.224;2023-02-28T19:33:27;12.70;;;6.97;;
5491;SDS011;2768;53.540;10.224;2023-02-28T19:39:22;12.57;;;7.67;;
5491;SDS011;2768;53.540;10.224;2023-02-28T19:45:15;17.57;;;10.60;;
5491;SDS011;2768;53.540;10.224;2023-02-28T19:51:09;10.60;;;7.80;;
5491;SDS011;2768;53.540;10.224;2023-02-28T19:57:05;8.17;;;7.27;;
5491;SDS011;2768;53.540;10.224;2023-02-28T20:02:58;8.07;;;6.60;;
5491;SDS011;2768;53.540;10.224;2023-02-28T20:08:52;9.43;;;7.73;;
5491;SDS011;2768;53.540;10.224;2023-02-28T20:14:47;9.53;;;6.70;;
5491;SDS011;2768;53.540;10.224;2023-02-28T20:20:41;8.13;;;5.80;;
5491;SDS011;2768;53.540;10.224;2023-02-28T20:26:34;12.23;;;8.83;;
5491;SDS011;2768;53.540;10.224;2023-02-28T20:32:29;8.40;;;7.07;;
5491;SDS011;2768;53.540;10.224;2023-02-28T20:38:23;12.33;;;9.20;;
5491;SDS011;2768;53.540;10.224;2023-02-28T20:44:16;8.40;;;7.60;;
5491;SDS011;2768;53.540;10.224;2023-02-28T20:50:12;10.20;;;7.03;;
5491;SDS011;2768;53.540;10.224;2023-02-28T20:56:05;7.90;;;7.10;;
5491;SDS011;2768;53.540;10.224;2023-02-28T21:02:00;6.93;;;6.33;;
5491;SDS011;2768;53.540;10.224;2023-02-28T21:07:55;14.53;;;11.20;;
5491;SDS011;2768;53.540;10.224;2023-02-28T21:13:48;13.17;;;10.57;;
5491;SDS011;2768;53.540;10.224;2023-02-28T21:19:43;12.83;;;10.80;;
5491;SDS011;2768;53.540;10.224;2023-02-28T21:25:37;10.43;;;8.93;;
5491;SDS011;2768;53.540;10.224;2023-02-28T21:31:31;8.00;;;7.00;;
5491;SDS011;2768;53.540;10.224;2023-02-28T21:37:25;8.37;;;6.27;;
5491;SDS011;2768;53.540;10.224;2023-02-28T21:43:19;8.47;;;7.17;;
5491;SDS011;2768;53.540;10.224;2023-02-28T21:49:13;9.30;;;7.40;;
5491;SDS011;2768;53.540;10.224;2023-02-28T21:55:07;10.97;;;7.53;;
5491;SDS011;2768;53.540;10.224;2023-02-28T22:01:05;16.33;;;8.33;;
5491;SDS011;2768;53.540;10.224;2023-02-28T22:07:00;11.13;;;9.03;;
5491;SDS011;2768;53.540;10.224;2023-02-28T22:12:53;11.63;;;9.20;;
5491;SDS011;2768;53.540;10.224;2023-02-28T22:18:48;10.10;;;7.70;;
5491;SDS011;2768;53.540;10.224;2023-02-28T22:24:41;9.00;;;7.80;;
5491;SDS011;2768;53.540;10.224;2023-02-28T22:30:35;7.07;;;6.37;;
5491;SDS011;2768;53.540;10.224;2023-02-28T22:36:30;6.93;;;5.63;;
5491;SDS011;2768;53.540;10.224;2023-02-28T22:42:23;7.50;;;6.20;;
5491;SDS011;2768;53.540;10.224;2023-02-28T22:48:17;9.63;;;7.00;;
5491;SDS011;2768;53.540;10.224;2023-02-28T22:54:12;10.37;;;5.90;;
5491;SDS011;2768;53.540;10.224;2023-02-28T23:00:06;6.33;;;5.50;;
5491;SDS011;2768;53.540;10.224;2023-02-28T23:06:10;7.10;;;5.83;;
5491;SDS011;2768;53.540;10.224;2023-02-28T23:12:06;5.57;;;5.07;;
5491;SDS011;2768;53.540;10.224;2023-02-28T23:18:00;6.70;;;5.57;;
5491;SDS011;2768;53.540;10.224;2023-02-28T23:23:53;6.73;;;5.80;;
5491;SDS011;2768;53.540;10.224;2023-02-28T23:29:48;9.10;;;7.30;;
5491;SDS011;2768;53.540;10.224;2023-02-28T23:35:41;9.00;;;7.27;;
5491;SDS011;2768;53.540;10.224;2023-02-28T23:41:35;9.13;;;5.90;;
5491;SDS011;2768;53.540;10.224;2023-02-28T23:47:31;6.30;;;5.70;;
5491;SDS011;2768;53.540;10.224;2023-02-28T23:53:24;7.67;;;5.50;;
5491;SDS011;2768;53.540;10.224;2023-02-28T23:59:21;7.30;;;6.13;;
